Kendall J. Hebert — WDG7507 — position and weather

sailwx.info

Track history (hours):
 
Tides and Currents Weather Stations Pressure Air Temp Water Temp Dewpoint Dewpoint Depression Visibility Wind Speed Wind Dir Waves Ship Positions

Kendall J. Hebert

Owner: Gulf Coast Tugs, Inc., Larose, LA. More information available from US FCC via Universal Licensing System and Coast Guard Vessel Documentation Center.

Last reported at 2017-Oct-16 20:43 UTC. Time now 2017-Oct-18 18:42 UTC.
Position N 41°14' W 072°40'.

Length 24 m.

Type: Tug. MMSI: 367567990.

Date/timePositionNaut miles runAvg speedWind from/ knotsBaromVisibWave heightAir tempDewpointWater temp
2017-Oct-16 20:43N 41°14' W 072°40'2 7.0
2017-Oct-16 20:30N 41°14' W 072°38'3 6.4
2017-Oct-16 20:00N 41°15' W 072°34'0 0.5
2017-Oct-16 19:30N 41°16' W 072°34'0 0.0
2017-Oct-16 19:00N 41°16' W 072°34'0 0.1
2017-Oct-16 18:30N 41°16' W 072°34'0 0.1
2017-Oct-16 18:00N 41°16' W 072°34'0 0.0
2017-Oct-16 17:30N 41°16' W 072°34'0 0.0
2017-Oct-16 17:00N 41°16' W 072°34'0 0.0
2017-Oct-16 16:30N 41°16' W 072°34'0 0.0
2017-Oct-16 16:00N 41°16' W 072°34'0 0.0
2017-Oct-16 15:30N 41°16' W 072°34'0 0.0
2017-Oct-16 15:00N 41°16' W 072°34'0 0.0
2017-Oct-16 14:30N 41°16' W 072°34'1 0.9
2017-Oct-16 13:30N 41°15' W 072°35'3 5.1
2017-Oct-16 12:58N 41°14' W 072°38'0 0.0
2017-Oct-15 21:19N 41°14' W 072°39'2 7.3
2017-Oct-15 21:00N 41°15' W 072°36'2 3.1
2017-Oct-15 20:30N 41°16' W 072°34'0 0.0
2017-Oct-15 20:00N 41°16' W 072°34'0 0.1
2017-Oct-15 19:30N 41°16' W 072°34'0 0.0
2017-Oct-15 19:00N 41°16' W 072°34'0 0.0
2017-Oct-15 18:30N 41°16' W 072°34'0 0.0
2017-Oct-15 18:00N 41°16' W 072°34'0 0.0
2017-Oct-15 17:30N 41°16' W 072°34'0 0.0
2017-Oct-15 16:59N 41°16' W 072°34'0 0.0
2017-Oct-15 16:30N 41°16' W 072°34'0 0.0
2017-Oct-15 15:59N 41°16' W 072°34'4 5.2
2017-Oct-15 15:13N 41°14' W 072°39'1 0.1
2017-Oct-15 01:22N 41°14' W 072°40'2 5.8
2017-Oct-15 01:00N 41°14' W 072°37'3 5.6
2017-Oct-15 00:30N 41°15' W 072°34'0 0.5
2017-Oct-15 00:00N 41°16' W 072°34'0 0.0
2017-Oct-14 23:30N 41°16' W 072°34'0 0.0
2017-Oct-14 23:00N 41°16' W 072°34'0 0.0
2017-Oct-14 22:30N 41°16' W 072°34'0 0.0
2017-Oct-14 22:00N 41°16' W 072°34'0 0.0
2017-Oct-14 21:29N 41°16' W 072°34'0 0.0
2017-Oct-14 21:00N 41°16' W 072°34'0 0.0
2017-Oct-14 20:30N 41°16' W 072°34'0 0.0
2017-Oct-14 20:00N 41°16' W 072°34'0 0.0
2017-Oct-14 19:30N 41°16' W 072°34'0 0.0
2017-Oct-14 19:00N 41°16' W 072°34'0 0.0
2017-Oct-14 18:30N 41°16' W 072°34'0 0.0
2017-Oct-14 18:00N 41°16' W 072°34'0 0.0
2017-Oct-14 17:30N 41°16' W 072°34'0 0.0
2017-Oct-14 17:00N 41°16' W 072°34'0 0.0
2017-Oct-14 16:30N 41°16' W 072°34'0 0.9
2017-Oct-14 16:00N 41°15' W 072°34'0 0.5
2017-Oct-14 15:30N 41°15' W 072°34'0 0.4
2017-Oct-14 15:00N 41°15' W 072°34'0 0.2
2017-Oct-14 14:30N 41°15' W 072°34'0 0.4
2017-Oct-14 14:00N 41°15' W 072°34'0 0.7
2017-Oct-14 13:30N 41°15' W 072°34'0 0.5
2017-Oct-14 13:00N 41°15' W 072°34'0 0.5
2017-Oct-14 12:30N 41°15' W 072°35'1 1.0
2017-Oct-14 11:58N 41°15' W 072°35'1 3.1
2017-Oct-14 11:29N 41°14' W 072°37'2 2.9
2017-Oct-14 10:48N 41°14' W 072°40'59 2.3
2017-Oct-13 09:17N 40°48' W 073°50'3 6.9
2017-Oct-13 08:49N 40°48' W 073°54'2 7.0
2017-Oct-13 08:30N 40°47' W 073°56'4 7.1
2017-Oct-13 08:00N 40°43' W 073°58'3 6.9
2017-Oct-13 07:30N 40°41' W 074°01'3 6.2
2017-Oct-13 07:00N 40°39' W 074°04'3 6.5
2017-Oct-13 06:30N 40°38' W 074°09'1 1.1
2017-Oct-13 05:59N 40°39' W 074°09'0 0.0
2017-Oct-13 05:22N 40°39' W 074°09'0 0.0
2017-Oct-13 05:00N 40°39' W 074°09'0 0.0
2017-Oct-13 04:30N 40°39' W 074°09'0 0.1
2017-Oct-13 04:00N 40°39' W 074°09'0 0.0
2017-Oct-13 03:30N 40°39' W 074°09'0 0.0
2017-Oct-13 03:00N 40°39' W 074°09'0 0.1
2017-Oct-13 02:30N 40°39' W 074°09'0 0.0
2017-Oct-13 02:00N 40°39' W 074°09'0 0.1
2017-Oct-13 01:30N 40°39' W 074°09'0 0.0
2017-Oct-13 00:58N 40°39' W 074°09'0 0.0
2017-Oct-13 00:30N 40°39' W 074°09'2 3.6
2017-Oct-13 00:00N 40°39' W 074°06'4 8.0
2017-Oct-12 23:30N 40°41' W 074°02'510.0
2017-Oct-12 23:00N 40°45' W 073°58'510.1
2017-Oct-12 22:28N 40°48' W 073°52'60 9.1
2017-Oct-12 15:53N 41°14' W 072°41'3 8.9
2017-Oct-12 15:30N 41°15' W 072°36'2 4.1
2017-Oct-12 15:00N 41°16' W 072°34'0 0.1
2017-Oct-12 14:30N 41°16' W 072°34'0 0.1
2017-Oct-12 14:00N 41°16' W 072°34'0 0.0
2017-Oct-12 13:30N 41°16' W 072°34'0 0.0
2017-Oct-12 13:00N 41°16' W 072°34'0 0.0
2017-Oct-12 12:30N 41°16' W 072°34'0 0.0
2017-Oct-12 12:00N 41°16' W 072°34'0 0.0
2017-Oct-12 11:30N 41°16' W 072°34'0 0.0
2017-Oct-12 11:00N 41°16' W 072°34'0 0.0
2017-Oct-12 10:30N 41°16' W 072°34'0 0.0
2017-Oct-12 10:00N 41°16' W 072°34'0 0.0
2017-Oct-12 09:30N 41°16' W 072°34'0 0.0
2017-Oct-12 09:00N 41°16' W 072°34'0 0.0
2017-Oct-12 08:30N 41°16' W 072°34'0 0.0
2017-Oct-12 08:00N 41°16' W 072°34'0 0.0
2017-Oct-12 07:30N 41°16' W 072°34'0 0.0
2017-Oct-12 07:00N 41°16' W 072°34'0 0.0
2017-Oct-12 06:30N 41°16' W 072°34'0 0.0
2017-Oct-12 06:00N 41°16' W 072°34'0 0.0
2017-Oct-12 05:30N 41°16' W 072°34'0 0.0
2017-Oct-12 05:00N 41°16' W 072°34'0 0.0
2017-Oct-12 04:30N 41°16' W 072°34'0 0.0
2017-Oct-12 04:00N 41°16' W 072°34'0 0.0
2017-Oct-12 03:30N 41°16' W 072°34'0 0.0
2017-Oct-12 03:00N 41°16' W 072°34'0 0.0
2017-Oct-12 02:30N 41°16' W 072°34'0 0.0
2017-Oct-12 02:00N 41°16' W 072°34'0 0.0
2017-Oct-12 01:30N 41°16' W 072°34'0 0.0
2017-Oct-12 01:00N 41°16' W 072°34'0 0.0
2017-Oct-12 00:30N 41°16' W 072°34'0 0.0
2017-Oct-12 00:00N 41°16' W 072°34'0 0.0
2017-Oct-11 23:30N 41°16' W 072°34'0 0.0
2017-Oct-11 23:00N 41°16' W 072°34'0 0.0
2017-Oct-11 22:30N 41°16' W 072°34'0 0.0
2017-Oct-11 22:00N 41°16' W 072°34'0 0.1
2017-Oct-11 21:30N 41°16' W 072°34'0 0.0
2017-Oct-11 21:00N 41°16' W 072°34'0 0.0
2017-Oct-11 20:30N 41°16' W 072°34'0 0.0
2017-Oct-11 19:41N 41°16' W 072°34'0 0.2
2017-Oct-11 19:30N 41°16' W 072°34'0 0.0
2017-Oct-11 19:00N 41°16' W 072°34'0 0.0
2017-Oct-11 18:30N 41°16' W 072°34'0 0.0
2017-Oct-11 18:00N 41°16' W 072°34'0 0.0
2017-Oct-11 17:30N 41°16' W 072°34'0 0.0
2017-Oct-11 17:00N 41°16' W 072°34'0 0.0
2017-Oct-11 00:00N 41°16' W 072°34'0 0.0
2017-Oct-10 23:30N 41°16' W 072°34'0 0.0
2017-Oct-10 23:00N 41°16' W 072°34'0 0.1
2017-Oct-10 22:30N 41°16' W 072°34'0 0.0
2017-Oct-10 22:00N 41°16' W 072°34'1 1.3
2017-Oct-10 21:30N 41°15' W 072°34'2 3.5
2017-Oct-10 21:00N 41°14' W 072°32'2 4.5
2017-Oct-10 20:30N 41°13' W 072°29'3 5.5
2017-Oct-10 20:00N 41°13' W 072°26'7 6.7
2017-Oct-10 18:55N 41°13' W 072°16'3 7.6
2017-Oct-10 18:30N 41°14' W 072°12'1 0.0
2017-Oct-09 12:34N 41°14' W 072°10'4 9.9
2017-Oct-09 12:09N 41°13' W 072°16'2 9.9
2017-Oct-09 11:59N 41°13' W 072°18'4 9.3
2017-Oct-09 11:30N 41°13' W 072°24'5 9.3
2017-Oct-09 11:00N 41°14' W 072°30'4 7.3
2017-Oct-09 10:30N 41°16' W 072°34'0 0.0
2017-Oct-09 10:00N 41°16' W 072°34'0 0.0
2017-Oct-09 09:30N 41°16' W 072°34'0 0.0
2017-Oct-09 09:00N 41°16' W 072°34'0 0.0
2017-Oct-09 08:30N 41°16' W 072°34'0 0.0
2017-Oct-09 08:00N 41°16' W 072°34'0 0.0
2017-Oct-09 07:30N 41°16' W 072°34'0 0.0
2017-Oct-09 07:00N 41°16' W 072°34'0 0.0
2017-Oct-09 06:30N 41°16' W 072°34'0 0.0
2017-Oct-09 06:00N 41°16' W 072°34'0 0.0
2017-Oct-09 05:30N 41°16' W 072°34'0 0.0
2017-Oct-09 05:00N 41°16' W 072°34'0 0.0
2017-Oct-09 04:30N 41°16' W 072°34'0 0.0
2017-Oct-09 04:00N 41°16' W 072°34'0 0.0
2017-Oct-09 03:30N 41°16' W 072°34'0 0.0
2017-Oct-09 03:00N 41°16' W 072°34'0 0.0
2017-Oct-09 02:30N 41°16' W 072°34'0 0.0
2017-Oct-09 02:00N 41°16' W 072°34'0 0.0
2017-Oct-09 01:30N 41°16' W 072°34'0 0.0
2017-Oct-09 01:00N 41°16' W 072°34'0 0.0
2017-Oct-09 00:30N 41°16' W 072°34'0 0.0
2017-Oct-09 00:00N 41°16' W 072°34'0 0.0
2017-Oct-08 23:30N 41°16' W 072°34'0 0.0
2017-Oct-08 23:00N 41°16' W 072°34'0 0.0
2017-Oct-08 22:30N 41°16' W 072°34'0 0.0
2017-Oct-08 22:00N 41°16' W 072°34'0 0.0
2017-Oct-08 21:30N 41°16' W 072°34'0 0.0
2017-Oct-08 21:00N 41°16' W 072°34'0 0.0
2017-Oct-08 20:30N 41°16' W 072°34'0 0.0
2017-Oct-08 20:00N 41°16' W 072°34'0 0.0
2017-Oct-08 19:30N 41°16' W 072°34'0 0.0
2017-Oct-08 19:00N 41°16' W 072°34'0 0.0
2017-Oct-08 18:30N 41°16' W 072°34'0 0.0
2017-Oct-08 18:00N 41°16' W 072°34'0 0.0
2017-Oct-08 17:30N 41°16' W 072°34'0 0.0
2017-Oct-08 17:00N 41°16' W 072°34'0 0.0
2017-Oct-08 16:30N 41°16' W 072°34'0 0.0
2017-Oct-08 16:00N 41°16' W 072°34'0 0.0
2017-Oct-08 15:30N 41°16' W 072°34'0 0.0
2017-Oct-08 15:00N 41°16' W 072°34'0 0.0
2017-Oct-08 14:30N 41°16' W 072°34'0 0.0
2017-Oct-08 14:00N 41°16' W 072°34'0 0.0
2017-Oct-08 13:30N 41°16' W 072°34'0 0.0
2017-Oct-08 13:00N 41°16' W 072°34'0 0.0
2017-Oct-08 12:30N 41°16' W 072°34'0 0.0
2017-Oct-08 12:00N 41°16' W 072°34'0 0.0
2017-Oct-08 11:30N 41°16' W 072°34'0 0.0
2017-Oct-08 11:00N 41°16' W 072°34'0 0.0
2017-Oct-08 10:30N 41°16' W 072°34'0 0.0
2017-Oct-08 10:00N 41°16' W 072°34'0 0.0
2017-Oct-08 09:30N 41°16' W 072°34'0 0.0
2017-Oct-08 09:00N 41°16' W 072°34'0 0.0
2017-Oct-08 08:30N 41°16' W 072°34'0 0.0
2017-Oct-08 08:00N 41°16' W 072°34'0 0.0
2017-Oct-08 07:30N 41°16' W 072°34'0 0.0
2017-Oct-08 07:00N 41°16' W 072°34'0 0.0
2017-Oct-08 06:30N 41°16' W 072°34'0 0.0
2017-Oct-08 06:00N 41°16' W 072°34'0 0.0
2017-Oct-08 05:30N 41°16' W 072°34'0 0.0
2017-Oct-08 05:00N 41°16' W 072°34'0 0.0
2017-Oct-08 04:30N 41°16' W 072°34'0 0.0
2017-Oct-08 04:00N 41°16' W 072°34'0 0.0
2017-Oct-08 03:30N 41°16' W 072°34'0 0.0
2017-Oct-08 03:00N 41°16' W 072°34'0 0.0
2017-Oct-08 02:30N 41°16' W 072°34'0 0.0
2017-Oct-08 02:00N 41°16' W 072°34'0 0.0
2017-Oct-08 01:30N 41°16' W 072°34'0 0.0
2017-Oct-08 01:00N 41°16' W 072°34'0 0.0
2017-Oct-08 00:30N 41°16' W 072°34'0 0.0
2017-Oct-08 00:00N 41°16' W 072°34'0 0.0
2017-Oct-07 23:30N 41°16' W 072°34'0 0.0
2017-Oct-07 23:00N 41°16' W 072°34'0 0.0
2017-Oct-07 22:30N 41°16' W 072°34'0 0.0
2017-Oct-07 22:00N 41°16' W 072°34'0 0.0
2017-Oct-07 21:30N 41°16' W 072°34'0 0.0
2017-Oct-07 21:00N 41°16' W 072°34'0 0.0
2017-Oct-07 20:30N 41°16' W 072°34'0 0.0
2017-Oct-07 20:00N 41°16' W 072°34'0 0.0
2017-Oct-07 19:30N 41°16' W 072°34'0 0.0
2017-Oct-07 19:00N 41°16' W 072°34'0 0.0
2017-Oct-07 18:30N 41°16' W 072°34'0 0.0
2017-Oct-07 18:00N 41°16' W 072°34'0 0.0
2017-Oct-07 17:30N 41°16' W 072°34'0 0.0
2017-Oct-07 17:00N 41°16' W 072°34'0 0.0
2017-Oct-07 16:30N 41°16' W 072°34'0 0.0
2017-Oct-07 16:00N 41°16' W 072°34'0 0.0
2017-Oct-07 15:30N 41°16' W 072°34'0 0.0
2017-Oct-07 15:00N 41°16' W 072°34'0 0.0
2017-Oct-07 14:30N 41°16' W 072°34'0 0.0
2017-Oct-07 14:00N 41°16' W 072°34'0 0.0
2017-Oct-07 13:30N 41°16' W 072°34'0 0.0
2017-Oct-07 13:00N 41°16' W 072°34'0 0.0
2017-Oct-07 12:30N 41°16' W 072°34'0 0.0
2017-Oct-07 12:00N 41°16' W 072°34'0 0.0
2017-Oct-07 11:30N 41°16' W 072°34'0 0.0
2017-Oct-07 11:00N 41°16' W 072°34'0 0.0
2017-Oct-07 10:30N 41°16' W 072°34'0 0.0
2017-Oct-07 10:00N 41°16' W 072°34'0 0.0
2017-Oct-07 09:30N 41°16' W 072°34'0 0.0
2017-Oct-07 09:00N 41°16' W 072°34'0 0.0
2017-Oct-07 08:30N 41°16' W 072°34'0 0.0
2017-Oct-07 08:00N 41°16' W 072°34'0 0.0
2017-Oct-07 07:30N 41°16' W 072°34'0 0.0
2017-Oct-07 07:00N 41°16' W 072°34'0 0.0
2017-Oct-07 06:30N 41°16' W 072°34'0 0.0
2017-Oct-07 06:00N 41°16' W 072°34'0 0.0
2017-Oct-07 05:30N 41°16' W 072°34'0 0.1
2017-Oct-07 05:00N 41°16' W 072°34'0 0.0
2017-Oct-07 04:30N 41°16' W 072°34'0 0.1
2017-Oct-07 04:00N 41°16' W 072°34'0 0.1
2017-Oct-07 03:30N 41°16' W 072°34'0 0.1
2017-Oct-07 03:00N 41°16' W 072°34'0 0.1
2017-Oct-07 02:30N 41°16' W 072°34'0 0.2
2017-Oct-07 02:00N 41°16' W 072°34'0 0.0
2017-Oct-07 01:30N 41°16' W 072°34'0 0.0
2017-Oct-07 01:00N 41°16' W 072°34'0 0.0
2017-Oct-07 00:30N 41°16' W 072°34'0 0.0
2017-Oct-07 00:00N 41°16' W 072°34'0 0.0
2017-Oct-06 23:30N 41°16' W 072°34'0 0.0
2017-Oct-06 23:00N 41°16' W 072°34'0 0.0
2017-Oct-06 22:30N 41°16' W 072°34'0 0.0
2017-Oct-06 22:00N 41°16' W 072°34'0 0.0
2017-Oct-06 21:30N 41°16' W 072°34'0 0.0
2017-Oct-06 21:00N 41°16' W 072°34'  
Track history (hours):
 
Tides and Currents Weather Stations Pressure Air Temp Water Temp Dewpoint Dewpoint Depression Visibility Wind Speed Wind Dir Waves Ship Positions

Kendall J. Hebert

Owner: Gulf Coast Tugs, Inc., Larose, LA. More information available from US FCC via Universal Licensing System and Coast Guard Vessel Documentation Center.

Last reported at 2017-Oct-16 20:43 UTC. Time now 2017-Oct-18 18:42 UTC.
Position N 41°14' W 072°40'.

Length 24 m.

Type: Tug. MMSI: 367567990.

Date/timePositionNaut miles runAvg speedWind from/ knotsBaromVisibWave heightAir tempDewpointWater temp
2017-Oct-16 20:43N 41°14' W 072°40'2 7.0
2017-Oct-16 20:30N 41°14' W 072°38'3 6.4
2017-Oct-16 20:00N 41°15' W 072°34'0 0.5
2017-Oct-16 19:30N 41°16' W 072°34'0 0.0
2017-Oct-16 19:00N 41°16' W 072°34'0 0.1
2017-Oct-16 18:30N 41°16' W 072°34'0 0.1
2017-Oct-16 18:00N 41°16' W 072°34'0 0.0
2017-Oct-16 17:30N 41°16' W 072°34'0 0.0
2017-Oct-16 17:00N 41°16' W 072°34'0 0.0
2017-Oct-16 16:30N 41°16' W 072°34'0 0.0
2017-Oct-16 16:00N 41°16' W 072°34'0 0.0
2017-Oct-16 15:30N 41°16' W 072°34'0 0.0
2017-Oct-16 15:00N 41°16' W 072°34'0 0.0
2017-Oct-16 14:30N 41°16' W 072°34'1 0.9
2017-Oct-16 13:30N 41°15' W 072°35'3 5.1
2017-Oct-16 12:58N 41°14' W 072°38'0 0.0
2017-Oct-15 21:19N 41°14' W 072°39'2 7.3
2017-Oct-15 21:00N 41°15' W 072°36'2 3.1
2017-Oct-15 20:30N 41°16' W 072°34'0 0.0
2017-Oct-15 20:00N 41°16' W 072°34'0 0.1
2017-Oct-15 19:30N 41°16' W 072°34'0 0.0
2017-Oct-15 19:00N 41°16' W 072°34'0 0.0
2017-Oct-15 18:30N 41°16' W 072°34'0 0.0
2017-Oct-15 18:00N 41°16' W 072°34'0 0.0
2017-Oct-15 17:30N 41°16' W 072°34'0 0.0
2017-Oct-15 16:59N 41°16' W 072°34'0 0.0
2017-Oct-15 16:30N 41°16' W 072°34'0 0.0
2017-Oct-15 15:59N 41°16' W 072°34'4 5.2
2017-Oct-15 15:13N 41°14' W 072°39'1 0.1
2017-Oct-15 01:22N 41°14' W 072°40'2 5.8
2017-Oct-15 01:00N 41°14' W 072°37'3 5.6
2017-Oct-15 00:30N 41°15' W 072°34'0 0.5
2017-Oct-15 00:00N 41°16' W 072°34'0 0.0
2017-Oct-14 23:30N 41°16' W 072°34'0 0.0
2017-Oct-14 23:00N 41°16' W 072°34'0 0.0
2017-Oct-14 22:30N 41°16' W 072°34'0 0.0
2017-Oct-14 22:00N 41°16' W 072°34'0 0.0
2017-Oct-14 21:29N 41°16' W 072°34'0 0.0
2017-Oct-14 21:00N 41°16' W 072°34'0 0.0
2017-Oct-14 20:30N 41°16' W 072°34'0 0.0
2017-Oct-14 20:00N 41°16' W 072°34'0 0.0
2017-Oct-14 19:30N 41°16' W 072°34'0 0.0
2017-Oct-14 19:00N 41°16' W 072°34'0 0.0
2017-Oct-14 18:30N 41°16' W 072°34'0 0.0
2017-Oct-14 18:00N 41°16' W 072°34'0 0.0
2017-Oct-14 17:30N 41°16' W 072°34'0 0.0
2017-Oct-14 17:00N 41°16' W 072°34'0 0.0
2017-Oct-14 16:30N 41°16' W 072°34'0 0.9
2017-Oct-14 16:00N 41°15' W 072°34'0 0.5
2017-Oct-14 15:30N 41°15' W 072°34'0 0.4
2017-Oct-14 15:00N 41°15' W 072°34'0 0.2
2017-Oct-14 14:30N 41°15' W 072°34'0 0.4
2017-Oct-14 14:00N 41°15' W 072°34'0 0.7
2017-Oct-14 13:30N 41°15' W 072°34'0 0.5
2017-Oct-14 13:00N 41°15' W 072°34'0 0.5
2017-Oct-14 12:30N 41°15' W 072°35'1 1.0
2017-Oct-14 11:58N 41°15' W 072°35'1 3.1
2017-Oct-14 11:29N 41°14' W 072°37'2 2.9
2017-Oct-14 10:48N 41°14' W 072°40'59 2.3
2017-Oct-13 09:17N 40°48' W 073°50'3 6.9
2017-Oct-13 08:49N 40°48' W 073°54'2 7.0
2017-Oct-13 08:30N 40°47' W 073°56'4 7.1
2017-Oct-13 08:00N 40°43' W 073°58'3 6.9
2017-Oct-13 07:30N 40°41' W 074°01'3 6.2
2017-Oct-13 07:00N 40°39' W 074°04'3 6.5
2017-Oct-13 06:30N 40°38' W 074°09'1 1.1
2017-Oct-13 05:59N 40°39' W 074°09'0 0.0
2017-Oct-13 05:22N 40°39' W 074°09'0 0.0
2017-Oct-13 05:00N 40°39' W 074°09'0 0.0
2017-Oct-13 04:30N 40°39' W 074°09'0 0.1
2017-Oct-13 04:00N 40°39' W 074°09'0 0.0
2017-Oct-13 03:30N 40°39' W 074°09'0 0.0
2017-Oct-13 03:00N 40°39' W 074°09'0 0.1
2017-Oct-13 02:30N 40°39' W 074°09'0 0.0
2017-Oct-13 02:00N 40°39' W 074°09'0 0.1
2017-Oct-13 01:30N 40°39' W 074°09'0 0.0
2017-Oct-13 00:58N 40°39' W 074°09'0 0.0
2017-Oct-13 00:30N 40°39' W 074°09'2 3.6
2017-Oct-13 00:00N 40°39' W 074°06'4 8.0
2017-Oct-12 23:30N 40°41' W 074°02'510.0
2017-Oct-12 23:00N 40°45' W 073°58'510.1
2017-Oct-12 22:28N 40°48' W 073°52'60 9.1
2017-Oct-12 15:53N 41°14' W 072°41'3 8.9
2017-Oct-12 15:30N 41°15' W 072°36'2 4.1
2017-Oct-12 15:00N 41°16' W 072°34'0 0.1
2017-Oct-12 14:30N 41°16' W 072°34'0 0.1
2017-Oct-12 14:00N 41°16' W 072°34'0 0.0
2017-Oct-12 13:30N 41°16' W 072°34'0 0.0
2017-Oct-12 13:00N 41°16' W 072°34'0 0.0
2017-Oct-12 12:30N 41°16' W 072°34'0 0.0
2017-Oct-12 12:00N 41°16' W 072°34'0 0.0
2017-Oct-12 11:30N 41°16' W 072°34'0 0.0
2017-Oct-12 11:00N 41°16' W 072°34'0 0.0
2017-Oct-12 10:30N 41°16' W 072°34'0 0.0
2017-Oct-12 10:00N 41°16' W 072°34'0 0.0
2017-Oct-12 09:30N 41°16' W 072°34'0 0.0
2017-Oct-12 09:00N 41°16' W 072°34'0 0.0
2017-Oct-12 08:30N 41°16' W 072°34'0 0.0
2017-Oct-12 08:00N 41°16' W 072°34'0 0.0
2017-Oct-12 07:30N 41°16' W 072°34'0 0.0
2017-Oct-12 07:00N 41°16' W 072°34'0 0.0
2017-Oct-12 06:30N 41°16' W 072°34'0 0.0
2017-Oct-12 06:00N 41°16' W 072°34'0 0.0
2017-Oct-12 05:30N 41°16' W 072°34'0 0.0
2017-Oct-12 05:00N 41°16' W 072°34'0 0.0
2017-Oct-12 04:30N 41°16' W 072°34'0 0.0
2017-Oct-12 04:00N 41°16' W 072°34'0 0.0
2017-Oct-12 03:30N 41°16' W 072°34'0 0.0
2017-Oct-12 03:00N 41°16' W 072°34'0 0.0
2017-Oct-12 02:30N 41°16' W 072°34'0 0.0
2017-Oct-12 02:00N 41°16' W 072°34'0 0.0
2017-Oct-12 01:30N 41°16' W 072°34'0 0.0
2017-Oct-12 01:00N 41°16' W 072°34'0 0.0
2017-Oct-12 00:30N 41°16' W 072°34'0 0.0
2017-Oct-12 00:00N 41°16' W 072°34'0 0.0
2017-Oct-11 23:30N 41°16' W 072°34'0 0.0
2017-Oct-11 23:00N 41°16' W 072°34'0 0.0
2017-Oct-11 22:30N 41°16' W 072°34'0 0.0
2017-Oct-11 22:00N 41°16' W 072°34'0 0.1
2017-Oct-11 21:30N 41°16' W 072°34'0 0.0
2017-Oct-11 21:00N 41°16' W 072°34'0 0.0
2017-Oct-11 20:30N 41°16' W 072°34'0 0.0
2017-Oct-11 19:41N 41°16' W 072°34'0 0.2
2017-Oct-11 19:30N 41°16' W 072°34'0 0.0
2017-Oct-11 19:00N 41°16' W 072°34'0 0.0
2017-Oct-11 18:30N 41°16' W 072°34'0 0.0
2017-Oct-11 18:00N 41°16' W 072°34'0 0.0
2017-Oct-11 17:30N 41°16' W 072°34'0 0.0
2017-Oct-11 17:00N 41°16' W 072°34'0 0.0
2017-Oct-11 00:00N 41°16' W 072°34'0 0.0
2017-Oct-10 23:30N 41°16' W 072°34'0 0.0
2017-Oct-10 23:00N 41°16' W 072°34'0 0.1
2017-Oct-10 22:30N 41°16' W 072°34'0 0.0
2017-Oct-10 22:00N 41°16' W 072°34'1 1.3
2017-Oct-10 21:30N 41°15' W 072°34'2 3.5
2017-Oct-10 21:00N 41°14' W 072°32'2 4.5
2017-Oct-10 20:30N 41°13' W 072°29'3 5.5
2017-Oct-10 20:00N 41°13' W 072°26'7 6.7
2017-Oct-10 18:55N 41°13' W 072°16'3 7.6
2017-Oct-10 18:30N 41°14' W 072°12'1 0.0
2017-Oct-09 12:34N 41°14' W 072°10'4 9.9
2017-Oct-09 12:09N 41°13' W 072°16'2 9.9
2017-Oct-09 11:59N 41°13' W 072°18'4 9.3
2017-Oct-09 11:30N 41°13' W 072°24'5 9.3
2017-Oct-09 11:00N 41°14' W 072°30'4 7.3
2017-Oct-09 10:30N 41°16' W 072°34'0 0.0
2017-Oct-09 10:00N 41°16' W 072°34'0 0.0
2017-Oct-09 09:30N 41°16' W 072°34'0 0.0
2017-Oct-09 09:00N 41°16' W 072°34'0 0.0
2017-Oct-09 08:30N 41°16' W 072°34'0 0.0
2017-Oct-09 08:00N 41°16' W 072°34'0 0.0
2017-Oct-09 07:30N 41°16' W 072°34'0 0.0
2017-Oct-09 07:00N 41°16' W 072°34'0 0.0
2017-Oct-09 06:30N 41°16' W 072°34'0 0.0
2017-Oct-09 06:00N 41°16' W 072°34'0 0.0
2017-Oct-09 05:30N 41°16' W 072°34'0 0.0
2017-Oct-09 05:00N 41°16' W 072°34'0 0.0
2017-Oct-09 04:30N 41°16' W 072°34'0 0.0
2017-Oct-09 04:00N 41°16' W 072°34'0 0.0
2017-Oct-09 03:30N 41°16' W 072°34'0 0.0
2017-Oct-09 03:00N 41°16' W 072°34'0 0.0
2017-Oct-09 02:30N 41°16' W 072°34'0 0.0
2017-Oct-09 02:00N 41°16' W 072°34'0 0.0
2017-Oct-09 01:30N 41°16' W 072°34'0 0.0
2017-Oct-09 01:00N 41°16' W 072°34'0 0.0
2017-Oct-09 00:30N 41°16' W 072°34'0 0.0
2017-Oct-09 00:00N 41°16' W 072°34'0 0.0
2017-Oct-08 23:30N 41°16' W 072°34'0 0.0
2017-Oct-08 23:00N 41°16' W 072°34'0 0.0
2017-Oct-08 22:30N 41°16' W 072°34'0 0.0
2017-Oct-08 22:00N 41°16' W 072°34'0 0.0
2017-Oct-08 21:30N 41°16' W 072°34'0 0.0
2017-Oct-08 21:00N 41°16' W 072°34'0 0.0
2017-Oct-08 20:30N 41°16' W 072°34'0 0.0
2017-Oct-08 20:00N 41°16' W 072°34'0 0.0
2017-Oct-08 19:30N 41°16' W 072°34'0 0.0
2017-Oct-08 19:00N 41°16' W 072°34'0 0.0
2017-Oct-08 18:30N 41°16' W 072°34'0 0.0
2017-Oct-08 18:00N 41°16' W 072°34'0 0.0
2017-Oct-08 17:30N 41°16' W 072°34'0 0.0
2017-Oct-08 17:00N 41°16' W 072°34'0 0.0
2017-Oct-08 16:30N 41°16' W 072°34'0 0.0
2017-Oct-08 16:00N 41°16' W 072°34'0 0.0
2017-Oct-08 15:30N 41°16' W 072°34'0 0.0
2017-Oct-08 15:00N 41°16' W 072°34'0 0.0
2017-Oct-08 14:30N 41°16' W 072°34'0 0.0
2017-Oct-08 14:00N 41°16' W 072°34'0 0.0
2017-Oct-08 13:30N 41°16' W 072°34'0 0.0
2017-Oct-08 13:00N 41°16' W 072°34'0 0.0
2017-Oct-08 12:30N 41°16' W 072°34'0 0.0
2017-Oct-08 12:00N 41°16' W 072°34'0 0.0
2017-Oct-08 11:30N 41°16' W 072°34'0 0.0
2017-Oct-08 11:00N 41°16' W 072°34'0 0.0
2017-Oct-08 10:30N 41°16' W 072°34'0 0.0
2017-Oct-08 10:00N 41°16' W 072°34'0 0.0
2017-Oct-08 09:30N 41°16' W 072°34'0 0.0
2017-Oct-08 09:00N 41°16' W 072°34'0 0.0
2017-Oct-08 08:30N 41°16' W 072°34'0 0.0
2017-Oct-08 08:00N 41°16' W 072°34'0 0.0
2017-Oct-08 07:30N 41°16' W 072°34'0 0.0
2017-Oct-08 07:00N 41°16' W 072°34'0 0.0
2017-Oct-08 06:30N 41°16' W 072°34'0 0.0
2017-Oct-08 06:00N 41°16' W 072°34'0 0.0
2017-Oct-08 05:30N 41°16' W 072°34'0 0.0
2017-Oct-08 05:00N 41°16' W 072°34'0 0.0
2017-Oct-08 04:30N 41°16' W 072°34'0 0.0
2017-Oct-08 04:00N 41°16' W 072°34'0 0.0
2017-Oct-08 03:30N 41°16' W 072°34'0 0.0
2017-Oct-08 03:00N 41°16' W 072°34'0 0.0
2017-Oct-08 02:30N 41°16' W 072°34'0 0.0
2017-Oct-08 02:00N 41°16' W 072°34'0 0.0
2017-Oct-08 01:30N 41°16' W 072°34'0 0.0
2017-Oct-08 01:00N 41°16' W 072°34'0 0.0
2017-Oct-08 00:30N 41°16' W 072°34'0 0.0
2017-Oct-08 00:00N 41°16' W 072°34'0 0.0
2017-Oct-07 23:30N 41°16' W 072°34'0 0.0
2017-Oct-07 23:00N 41°16' W 072°34'0 0.0
2017-Oct-07 22:30N 41°16' W 072°34'0 0.0
2017-Oct-07 22:00N 41°16' W 072°34'0 0.0
2017-Oct-07 21:30N 41°16' W 072°34'0 0.0
2017-Oct-07 21:00N 41°16' W 072°34'0 0.0
2017-Oct-07 20:30N 41°16' W 072°34'0 0.0
2017-Oct-07 20:00N 41°16' W 072°34'0 0.0
2017-Oct-07 19:30N 41°16' W 072°34'0 0.0
2017-Oct-07 19:00N 41°16' W 072°34'0 0.0
2017-Oct-07 18:30N 41°16' W 072°34'0 0.0
2017-Oct-07 18:00N 41°16' W 072°34'0 0.0
2017-Oct-07 17:30N 41°16' W 072°34'0 0.0
2017-Oct-07 17:00N 41°16' W 072°34'0 0.0
2017-Oct-07 16:30N 41°16' W 072°34'0 0.0
2017-Oct-07 16:00N 41°16' W 072°34'0 0.0
2017-Oct-07 15:30N 41°16' W 072°34'0 0.0
2017-Oct-07 15:00N 41°16' W 072°34'0 0.0
2017-Oct-07 14:30N 41°16' W 072°34'0 0.0
2017-Oct-07 14:00N 41°16' W 072°34'0 0.0
2017-Oct-07 13:30N 41°16' W 072°34'0 0.0
2017-Oct-07 13:00N 41°16' W 072°34'0 0.0
2017-Oct-07 12:30N 41°16' W 072°34'0 0.0
2017-Oct-07 12:00N 41°16' W 072°34'0 0.0
2017-Oct-07 11:30N 41°16' W 072°34'0 0.0
2017-Oct-07 11:00N 41°16' W 072°34'0 0.0
2017-Oct-07 10:30N 41°16' W 072°34'0 0.0
2017-Oct-07 10:00N 41°16' W 072°34'0 0.0
2017-Oct-07 09:30N 41°16' W 072°34'0 0.0
2017-Oct-07 09:00N 41°16' W 072°34'0 0.0
2017-Oct-07 08:30N 41°16' W 072°34'0 0.0
2017-Oct-07 08:00N 41°16' W 072°34'0 0.0
2017-Oct-07 07:30N 41°16' W 072°34'0 0.0
2017-Oct-07 07:00N 41°16' W 072°34'0 0.0
2017-Oct-07 06:30N 41°16' W 072°34'0 0.0
2017-Oct-07 06:00N 41°16' W 072°34'0 0.0
2017-Oct-07 05:30N 41°16' W 072°34'0 0.1
2017-Oct-07 05:00N 41°16' W 072°34'0 0.0
2017-Oct-07 04:30N 41°16' W 072°34'0 0.1
2017-Oct-07 04:00N 41°16' W 072°34'0 0.1
2017-Oct-07 03:30N 41°16' W 072°34'0 0.1
2017-Oct-07 03:00N 41°16' W 072°34'0 0.1
2017-Oct-07 02:30N 41°16' W 072°34'0 0.2
2017-Oct-07 02:00N 41°16' W 072°34'0 0.0
2017-Oct-07 01:30N 41°16' W 072°34'0 0.0
2017-Oct-07 01:00N 41°16' W 072°34'0 0.0
2017-Oct-07 00:30N 41°16' W 072°34'0 0.0
2017-Oct-07 00:00N 41°16' W 072°34'0 0.0
2017-Oct-06 23:30N 41°16' W 072°34'0 0.0
2017-Oct-06 23:00N 41°16' W 072°34'0 0.0
2017-Oct-06 22:30N 41°16' W 072°34'0 0.0
2017-Oct-06 22:00N 41°16' W 072°34'0 0.0
2017-Oct-06 21:30N 41°16' W 072°34'0 0.0
2017-Oct-06 21:00N 41°16' W 072°34'  

Dump ship's entire track history